createdAt,value
2019-04-03T00:02:08.155Z,11.13
2019-04-03T00:04:36.468Z,11.09
2019-04-03T00:07:05.944Z,11.09
2019-04-03T00:09:35.865Z,11.08
2019-04-03T00:12:04.443Z,11.10
2019-04-03T00:14:33.179Z,11.14
2019-04-03T00:17:01.470Z,11.15
2019-04-03T00:19:29.766Z,11.17
2019-04-03T00:21:58.078Z,11.20
2019-04-03T00:24:26.375Z,11.22
2019-04-03T00:26:54.698Z,11.22
2019-04-03T00:29:23.002Z,11.23
2019-04-03T00:31:52.989Z,11.25
2019-04-03T00:34:22.987Z,11.25
2019-04-03T00:36:52.937Z,11.28
2019-04-03T00:39:23.957Z,11.29
2019-04-03T00:41:52.872Z,11.31
2019-04-03T00:44:23.986Z,11.29
2019-04-03T00:46:51.685Z,11.26
2019-04-03T00:49:19.992Z,11.24
2019-04-03T00:51:48.295Z,11.13
2019-04-03T00:54:16.682Z,11.10
2019-04-03T00:56:45.312Z,11.13
2019-04-03T00:59:13.617Z,11.12
2019-04-03T01:01:42.049Z,11.13
2019-04-03T01:04:10.317Z,11.14
2019-04-03T01:06:38.948Z,11.11
2019-04-03T01:09:08.005Z,11.09
2019-04-03T01:11:36.620Z,11.06
2019-04-03T01:14:05.706Z,11.01
2019-04-03T01:16:34.032Z,10.99
2019-04-03T01:19:05.183Z,10.95
2019-04-03T01:21:32.363Z,10.92
2019-04-03T01:24:00.715Z,10.91
2019-04-03T01:26:29.092Z,10.87
2019-04-03T01:28:57.394Z,10.84
2019-04-03T01:31:25.718Z,10.84
2019-04-03T01:33:54.304Z,10.81
2019-04-03T01:36:22.679Z,10.81
2019-04-03T01:38:51.580Z,10.80
2019-04-03T01:41:21.218Z,10.79
2019-04-03T01:43:50.162Z,10.79
2019-04-03T01:46:18.452Z,10.78
2019-04-03T01:48:46.779Z,10.78
2019-04-03T01:51:15.394Z,10.78
2019-04-03T01:53:43.688Z,10.77
2019-04-03T01:56:11.976Z,10.75
2019-04-03T01:58:40.627Z,10.74
2019-04-03T02:01:08.943Z,10.74
2019-04-03T02:03:37.255Z,10.72
2019-04-03T02:06:05.572Z,10.72
2019-04-03T02:08:33.865Z,10.74
2019-04-03T02:11:02.175Z,10.72
2019-04-03T02:13:30.471Z,10.74
2019-04-03T02:15:58.791Z,10.74
2019-04-03T02:18:27.279Z,10.69
2019-04-03T02:20:57.370Z,10.68
2019-04-03T02:23:26.080Z,10.65
2019-04-03T02:25:54.321Z,10.63
2019-04-03T02:28:22.626Z,10.63
2019-04-03T02:30:51.037Z,10.64
2019-04-03T02:33:19.825Z,10.64
2019-04-03T02:35:48.821Z,10.60
2019-04-03T02:38:17.157Z,10.60
2019-04-03T02:40:45.452Z,10.60
2019-04-03T02:43:15.085Z,10.60
2019-04-03T02:45:44.227Z,10.58
2019-04-03T02:48:12.840Z,10.57
2019-04-03T02:50:41.397Z,10.43
2019-04-03T02:53:10.315Z,10.42
2019-04-03T02:55:40.073Z,10.45
2019-04-03T02:58:08.795Z,10.47
2019-04-03T03:00:37.119Z,10.47
2019-04-03T03:03:05.415Z,10.47
2019-04-03T03:05:34.320Z,10.50
2019-04-03T03:08:02.627Z,10.49
2019-04-03T03:10:31.908Z,10.46
2019-04-03T03:13:02.251Z,10.45
2019-04-03T03:15:30.588Z,10.44
2019-04-03T03:17:59.206Z,10.39
2019-04-03T03:20:29.238Z,10.36
2019-04-03T03:22:57.609Z,10.34
2019-04-03T03:25:26.416Z,10.30
2019-04-03T03:27:55.081Z,10.28
2019-04-03T03:30:42.214Z,10.28
2019-04-03T03:33:19.534Z,10.28
2019-04-03T03:35:30.121Z,10.26
2019-04-03T03:37:54.702Z,10.24
2019-04-03T03:40:23.098Z,10.22
2019-04-03T03:42:51.457Z,10.20
2019-04-03T03:45:21.723Z,10.06
2019-04-03T03:47:50.195Z,10.06
2019-04-03T03:50:23.934Z,10.07
2019-04-03T03:52:52.073Z,10.07
2019-04-03T03:55:22.795Z,10.07
2019-04-03T03:57:51.157Z,10.07
2019-04-03T04:00:22.581Z,10.08
2019-04-03T04:02:49.811Z,10.06
2019-04-03T04:05:21.380Z,10.00
2019-04-03T04:07:48.269Z,9.99
2019-04-03T04:10:16.576Z,9.95
2019-04-03T04:12:45.663Z,9.93
2019-04-03T04:15:14.118Z,9.92
2019-04-03T04:17:42.596Z,9.91
2019-04-03T04:20:12.000Z,9.91
2019-04-03T04:22:40.590Z,9.91
2019-04-03T04:25:08.936Z,9.91
2019-04-03T04:27:39.139Z,9.91
2019-04-03T04:30:08.111Z,9.91
2019-04-03T04:32:36.614Z,9.89
2019-04-03T04:35:06.547Z,9.87
2019-04-03T04:37:34.860Z,9.87
2019-04-03T04:40:03.362Z,9.86
2019-04-03T04:42:34.362Z,9.84
2019-04-03T04:45:02.276Z,9.83
2019-04-03T04:47:30.577Z,9.81
2019-04-03T04:49:58.864Z,9.80
2019-04-03T04:52:27.686Z,9.81
2019-04-03T04:54:56.489Z,9.84
2019-04-03T04:57:25.166Z,9.83
2019-04-03T04:59:53.573Z,9.82
2019-04-03T05:02:22.208Z,9.80
2019-04-03T05:04:50.506Z,9.81
2019-04-03T05:07:19.253Z,9.79
2019-04-03T05:09:47.483Z,9.79
2019-04-03T05:12:16.424Z,9.78
2019-04-03T05:14:44.725Z,9.78
2019-04-03T05:17:13.072Z,9.78
2019-04-03T05:19:41.323Z,9.80
2019-04-03T05:22:09.984Z,9.81
2019-04-03T05:24:38.354Z,9.81
2019-04-03T05:27:08.305Z,9.80
2019-04-03T05:29:36.782Z,9.78
2019-04-03T05:32:05.435Z,9.76
2019-04-03T05:34:33.825Z,9.74
2019-04-03T05:37:02.117Z,9.73
2019-04-03T05:39:30.414Z,9.70
2019-04-03T05:41:59.661Z,9.72
2019-04-03T05:44:28.536Z,9.71
2019-04-03T05:46:59.465Z,9.69
2019-04-03T05:49:26.875Z,9.68
2019-04-03T05:51:55.799Z,9.66
2019-04-03T05:54:24.099Z,9.62
2019-04-03T05:56:52.569Z,9.60
2019-04-03T05:59:21.207Z,9.57
2019-04-03T06:01:49.643Z,9.51
2019-04-03T06:04:18.387Z,9.50
2019-04-03T06:06:47.293Z,9.46
2019-04-03T06:09:15.839Z,9.42
2019-04-03T06:11:44.146Z,9.42
2019-04-03T06:14:12.834Z,9.40
2019-04-03T06:16:41.663Z,9.41
2019-04-03T06:19:09.979Z,9.39
2019-04-03T06:21:38.295Z,9.36
2019-04-03T06:24:06.856Z,9.35
2019-04-03T06:26:37.148Z,9.34
2019-04-03T06:29:07.298Z,9.33
2019-04-03T06:31:35.821Z,9.34
2019-04-03T06:34:07.011Z,9.33
2019-04-03T06:36:34.409Z,9.30
2019-04-03T06:39:03.224Z,9.29
2019-04-03T06:41:31.802Z,9.30
2019-04-03T06:44:00.115Z,9.32
2019-04-03T06:46:29.886Z,9.38
2019-04-03T06:48:58.435Z,9.42
2019-04-03T06:51:26.799Z,9.43
2019-04-03T06:53:55.070Z,9.39
2019-04-03T06:56:23.658Z,9.34
2019-04-03T06:58:52.125Z,9.32
2019-04-03T07:01:20.570Z,9.27
2019-04-03T07:03:49.124Z,9.28
2019-04-03T07:06:18.001Z,9.28
2019-04-03T07:08:46.280Z,9.23
2019-04-03T07:11:23.179Z,9.17
2019-04-03T07:13:44.925Z,9.16
2019-04-03T07:16:13.342Z,9.22
2019-04-03T07:18:41.883Z,9.26
2019-04-03T07:21:10.197Z,9.28
2019-04-03T07:23:39.101Z,9.29
2019-04-03T07:26:07.490Z,9.29
2019-04-03T07:28:35.782Z,9.31
2019-04-03T07:31:04.392Z,9.31
2019-04-03T07:33:32.963Z,9.34
2019-04-03T07:36:01.590Z,9.36
2019-04-03T07:38:30.101Z,9.37
2019-04-03T07:40:58.412Z,9.39
2019-04-03T07:43:27.561Z,9.43
2019-04-03T07:45:56.309Z,9.44
2019-04-03T07:48:24.600Z,9.48
2019-04-03T07:50:53.047Z,9.52
2019-04-03T07:53:21.472Z,9.51
2019-04-03T07:55:50.137Z,9.48
2019-04-03T07:58:18.714Z,9.49
2019-04-03T08:00:47.038Z,9.48
2019-04-03T08:03:15.665Z,9.49
2019-04-03T08:05:44.374Z,9.54
2019-04-03T08:08:13.222Z,9.57
2019-04-03T08:10:42.005Z,9.59
2019-04-03T08:13:10.311Z,9.60
2019-04-03T08:15:38.883Z,9.59
2019-04-03T08:18:07.373Z,9.58
2019-04-03T08:20:35.985Z,9.55
2019-04-03T08:23:05.630Z,9.53
2019-04-03T08:25:35.097Z,9.51
2019-04-03T08:28:03.484Z,9.49
2019-04-03T08:30:31.774Z,9.47
2019-04-03T08:33:00.262Z,9.50
2019-04-03T08:35:28.698Z,9.51
2019-04-03T08:37:57.273Z,9.45
2019-04-03T08:40:25.862Z,9.43
2019-04-03T08:42:54.422Z,9.43
2019-04-03T08:45:23.339Z,9.46
2019-04-03T08:47:51.708Z,9.51
2019-04-03T08:50:20.047Z,9.52
2019-04-03T08:52:48.912Z,9.58
2019-04-03T08:55:17.461Z,9.62
2019-04-03T08:57:46.862Z,9.72
2019-04-03T09:00:17.344Z,9.79
2019-04-03T09:02:45.742Z,9.86
2019-04-03T09:05:15.137Z,9.86
2019-04-03T09:07:43.652Z,9.90
2019-04-03T09:10:13.485Z,9.99
2019-04-03T09:12:42.074Z,10.04
2019-04-03T09:15:11.316Z,10.03
2019-04-03T09:17:39.937Z,10.01
2019-04-03T09:20:08.406Z,9.98
2019-04-03T09:22:36.738Z,10.01
2019-04-03T09:25:06.870Z,10.04
2019-04-03T09:27:35.174Z,10.10
2019-04-03T09:30:11.817Z,10.12
2019-04-03T09:32:40.113Z,10.14
2019-04-03T09:35:08.755Z,10.20
2019-04-03T09:37:38.100Z,10.25
2019-04-03T09:40:07.440Z,10.24
2019-04-03T09:42:35.855Z,10.26
2019-04-03T09:45:07.504Z,10.39
2019-04-03T09:47:35.824Z,10.51
2019-04-03T09:50:06.918Z,10.59
2019-04-03T09:52:42.070Z,10.55
2019-04-03T09:55:06.269Z,10.57
2019-04-03T09:57:34.601Z,10.61
2019-04-03T10:00:04.099Z,10.43
2019-04-03T10:02:32.420Z,10.37
2019-04-03T10:05:01.041Z,10.26
2019-04-03T10:07:31.453Z,10.06
2019-04-03T10:09:59.377Z,9.96
2019-04-03T10:12:27.666Z,9.91
2019-04-03T10:14:57.042Z,9.94
2019-04-03T10:17:26.032Z,10.02
2019-04-03T10:19:54.583Z,9.97
2019-04-03T10:22:24.173Z,10.00
2019-04-03T10:24:53.045Z,10.00
2019-04-03T10:27:21.662Z,9.95
2019-04-03T10:29:50.841Z,9.97
2019-04-03T10:32:19.423Z,10.07
2019-04-03T10:34:48.029Z,10.12
2019-04-03T10:37:16.321Z,10.09
2019-04-03T10:39:44.973Z,10.03
2019-04-03T10:42:13.486Z,10.08
2019-04-03T10:44:42.276Z,10.03
2019-04-03T10:47:10.576Z,9.94
2019-04-03T10:49:39.134Z,9.92
2019-04-03T10:52:07.450Z,9.84
2019-04-03T10:54:38.055Z,9.83
2019-04-03T10:57:06.434Z,9.85
2019-04-03T10:59:34.786Z,9.77
2019-04-03T11:02:03.121Z,9.82
2019-04-03T11:04:31.417Z,10.00
2019-04-03T11:07:00.099Z,10.19
2019-04-03T11:09:28.436Z,10.15
2019-04-03T11:11:58.273Z,10.21
2019-04-03T11:14:27.173Z,10.24
2019-04-03T11:16:55.818Z,10.38
2019-04-03T11:19:24.302Z,10.59
2019-04-03T11:21:55.746Z,10.53
2019-04-03T11:24:23.423Z,10.53
2019-04-03T11:26:52.510Z,10.59
2019-04-03T11:29:21.426Z,10.61
2019-04-03T11:31:50.370Z,10.67
2019-04-03T11:34:19.192Z,10.77
2019-04-03T11:36:47.649Z,10.90
2019-04-03T11:39:16.791Z,11.07
2019-04-03T11:41:45.161Z,11.12
2019-04-03T11:44:13.902Z,10.95
2019-04-03T11:46:42.372Z,11.02
2019-04-03T11:49:11.014Z,11.13
2019-04-03T11:51:39.567Z,11.37
2019-04-03T11:54:08.584Z,11.71
2019-04-03T11:56:37.463Z,12.08
2019-04-03T11:59:05.768Z,12.28
2019-04-03T12:01:34.154Z,12.25
2019-04-03T12:04:02.756Z,12.26
2019-04-03T12:06:31.134Z,12.23
2019-04-03T12:09:01.029Z,12.21
2019-04-03T12:11:29.512Z,12.20
2019-04-03T12:13:57.812Z,12.25
2019-04-03T12:16:26.621Z,12.47
2019-04-03T12:18:55.019Z,12.57
2019-04-03T12:21:23.322Z,12.48
2019-04-03T12:23:51.741Z,12.47
2019-04-03T12:26:21.282Z,12.55
2019-04-03T12:28:50.210Z,12.68
2019-04-03T12:31:19.293Z,12.95
2019-04-03T12:33:56.835Z,13.24
2019-04-03T12:36:18.091Z,13.40
2019-04-03T12:38:46.653Z,13.29
2019-04-03T12:41:15.580Z,13.20
2019-04-03T12:43:43.860Z,13.22
2019-04-03T12:46:12.488Z,13.19
2019-04-03T12:48:41.104Z,13.08
2019-04-03T12:51:09.382Z,12.90
2019-04-03T12:53:37.925Z,12.66
2019-04-03T12:56:06.587Z,12.59
2019-04-03T12:58:36.299Z,12.65
2019-04-03T13:01:05.150Z,12.71
2019-04-03T13:03:36.389Z,12.56
2019-04-03T13:06:03.869Z,12.56
2019-04-03T13:08:32.188Z,12.69
2019-04-03T13:11:00.763Z,12.70
2019-04-03T13:13:29.170Z,12.70
2019-04-03T13:15:57.473Z,12.90
2019-04-03T13:18:25.765Z,13.13
2019-04-03T13:20:54.391Z,13.31
2019-04-03T13:23:22.686Z,13.36
2019-04-03T13:25:53.100Z,13.45
2019-04-03T13:28:21.627Z,13.59
2019-04-03T13:30:50.269Z,13.68
2019-04-03T13:33:18.620Z,13.72
2019-04-03T13:35:48.359Z,13.79
2019-04-03T13:38:17.547Z,13.86
2019-04-03T13:40:46.095Z,13.90
2019-04-03T13:43:15.025Z,13.89
2019-04-03T13:45:43.809Z,13.78
2019-04-03T13:48:13.404Z,13.57
2019-04-03T13:50:45.045Z,13.64
2019-04-03T13:53:12.736Z,13.65
2019-04-03T13:55:41.203Z,13.62
2019-04-03T13:58:09.516Z,13.59
2019-04-03T14:00:37.866Z,13.53
2019-04-03T14:03:06.177Z,13.34
2019-04-03T14:05:34.892Z,13.16
2019-04-03T14:08:06.037Z,12.93
2019-04-03T14:10:34.013Z,12.70
2019-04-03T14:13:02.344Z,12.51
2019-04-03T14:15:31.134Z,12.34
2019-04-03T14:17:59.524Z,12.24
2019-04-03T14:20:28.709Z,12.13
2019-04-03T14:22:56.978Z,11.99
2019-04-03T14:25:28.107Z,11.93
2019-04-03T14:27:55.980Z,11.90
2019-04-03T14:30:24.623Z,11.89
2019-04-03T14:32:54.668Z,11.91
2019-04-03T14:35:45.194Z,11.92
2019-04-03T14:37:53.414Z,11.90
2019-04-03T14:40:22.067Z,11.97
2019-04-03T14:42:50.841Z,12.04
2019-04-03T14:45:19.853Z,12.09
2019-04-03T14:47:48.568Z,12.17
2019-04-03T14:50:17.085Z,12.24
2019-04-03T14:52:47.653Z,12.26
2019-04-03T14:55:19.802Z,12.28
2019-04-03T14:57:45.628Z,12.24
2019-04-03T15:00:25.651Z,12.25
2019-04-03T15:02:44.432Z,12.37
2019-04-03T15:05:12.991Z,12.46
2019-04-03T15:07:41.347Z,12.58
2019-04-03T15:10:10.080Z,12.67
2019-04-03T15:12:39.871Z,12.72
2019-04-03T15:15:09.703Z,12.72
2019-04-03T15:17:38.739Z,12.70
2019-04-03T15:20:08.545Z,12.68
2019-04-03T15:22:37.144Z,12.66
2019-04-03T15:25:06.482Z,12.63
2019-04-03T15:27:34.739Z,12.65
2019-04-03T15:30:03.034Z,12.67
2019-04-03T15:32:32.049Z,12.65
2019-04-03T15:35:01.217Z,12.64
2019-04-03T15:37:29.997Z,12.68
2019-04-03T15:39:59.129Z,12.76
2019-04-03T15:42:27.988Z,12.80
2019-04-03T15:44:57.727Z,12.79
2019-04-03T15:47:35.180Z,12.74
2019-04-03T15:49:58.746Z,12.61
2019-04-03T15:52:26.445Z,12.45
2019-04-03T15:54:54.776Z,12.35
2019-04-03T15:57:23.258Z,12.28
2019-04-03T15:59:52.761Z,12.22
2019-04-03T16:02:21.514Z,12.18
2019-04-03T16:04:50.370Z,12.15
2019-04-03T16:07:18.933Z,12.09
2019-04-03T16:09:49.633Z,12.03
2019-04-03T16:12:17.831Z,12.01
2019-04-03T16:14:46.848Z,12.00
2019-04-03T16:17:15.561Z,12.00
2019-04-03T16:19:44.769Z,12.00
2019-04-03T16:22:13.684Z,11.99
2019-04-03T16:24:44.279Z,11.99
2019-04-03T16:27:12.006Z,11.95
2019-04-03T16:29:41.324Z,11.92
2019-04-03T16:32:10.294Z,11.90
2019-04-03T16:34:40.817Z,11.86
2019-04-03T16:37:08.673Z,11.81
2019-04-03T16:39:36.975Z,11.76
2019-04-03T16:42:05.438Z,11.71
2019-04-03T16:44:34.003Z,11.69
2019-04-03T16:47:02.893Z,11.67
2019-04-03T16:49:31.595Z,11.65
2019-04-03T16:51:59.865Z,11.61
2019-04-03T16:54:29.601Z,11.59
2019-04-03T16:56:58.280Z,11.56
2019-04-03T16:59:26.696Z,11.53
2019-04-03T17:01:54.945Z,11.52
2019-04-03T17:04:27.202Z,11.50
2019-04-03T17:06:53.791Z,11.49
2019-04-03T17:09:22.090Z,11.45
2019-04-03T17:11:51.195Z,11.43
2019-04-03T17:14:23.671Z,11.40
2019-04-03T17:16:50.480Z,11.39
2019-04-03T17:19:18.948Z,11.37
2019-04-03T17:21:47.244Z,11.34
2019-04-03T17:24:17.826Z,11.29
2019-04-03T17:26:50.895Z,11.24
2019-04-03T17:29:17.022Z,11.21
2019-04-03T17:31:45.532Z,11.16
2019-04-03T17:34:13.824Z,11.11
2019-04-03T17:36:42.360Z,11.07
2019-04-03T17:39:11.174Z,11.04
2019-04-03T17:41:39.512Z,11.01
2019-04-03T17:44:07.837Z,10.99
2019-04-03T17:46:36.138Z,10.97
2019-04-03T17:49:04.987Z,10.94
2019-04-03T17:51:34.197Z,10.92
2019-04-03T17:54:02.477Z,10.89
2019-04-03T17:56:30.844Z,10.86
2019-04-03T17:58:59.191Z,10.82
2019-04-03T18:01:27.501Z,10.78
2019-04-03T18:03:55.819Z,10.76
2019-04-03T18:06:27.170Z,10.73
2019-04-03T18:08:54.190Z,10.70
2019-04-03T18:11:22.471Z,10.67
2019-04-03T18:13:50.754Z,10.64
2019-04-03T18:16:19.068Z,10.60
2019-04-03T18:18:49.883Z,10.58
2019-04-03T18:21:18.380Z,10.54
2019-04-03T18:23:46.698Z,10.47
2019-04-03T18:26:15.005Z,10.40
2019-04-03T18:28:43.318Z,10.33
2019-04-03T18:31:11.779Z,10.27
2019-04-03T18:33:41.860Z,10.20
2019-04-03T18:36:10.184Z,10.11
2019-04-03T18:38:39.104Z,9.99
2019-04-03T18:41:07.448Z,9.92
2019-04-03T18:43:35.747Z,9.85
2019-04-03T18:46:04.118Z,9.80
2019-04-03T18:48:32.413Z,9.76
2019-04-03T18:51:00.720Z,9.74
2019-04-03T18:53:29.057Z,9.68
2019-04-03T18:55:57.386Z,9.63
2019-04-03T18:58:25.686Z,9.59
2019-04-03T19:00:53.981Z,9.56
2019-04-03T19:03:22.279Z,9.53
2019-04-03T19:05:50.604Z,9.51
2019-04-03T19:08:18.886Z,9.49
2019-04-03T19:10:47.199Z,9.49
2019-04-03T19:13:15.564Z,9.48
2019-04-03T19:15:43.939Z,9.45
2019-04-03T19:18:19.380Z,9.42
2019-04-03T19:20:43.408Z,9.42
2019-04-03T19:23:12.652Z,9.42
2019-04-03T19:25:41.046Z,9.42
2019-04-03T19:28:09.365Z,9.42
2019-04-03T19:30:38.032Z,9.41
2019-04-03T19:33:06.757Z,9.40
2019-04-03T19:35:35.062Z,9.38
2019-04-03T19:38:04.991Z,9.37
2019-04-03T19:40:33.477Z,9.38
2019-04-03T19:43:01.778Z,9.34
2019-04-03T19:45:30.110Z,9.31
2019-04-03T19:47:58.675Z,9.33
2019-04-03T19:50:26.978Z,9.33
2019-04-03T19:52:55.260Z,9.32
2019-04-03T19:55:24.188Z,9.31
2019-04-03T19:57:52.817Z,9.29
2019-04-03T20:00:21.202Z,9.28
2019-04-03T20:02:49.598Z,9.26
2019-04-03T20:05:19.040Z,9.25
2019-04-03T20:07:47.836Z,9.24
2019-04-03T20:10:16.229Z,9.22
2019-04-03T20:12:44.519Z,9.19
2019-04-03T20:15:12.942Z,9.18
2019-04-03T20:17:41.252Z,9.14
2019-04-03T20:20:10.874Z,9.12
2019-04-03T20:22:42.313Z,9.08
2019-04-03T20:25:09.370Z,9.06
2019-04-03T20:27:37.767Z,9.03
2019-04-03T20:30:07.728Z,9.01
2019-04-03T20:32:36.105Z,8.99
2019-04-03T20:35:06.229Z,8.98
2019-04-03T20:37:34.536Z,8.97
2019-04-03T20:40:03.172Z,8.97
2019-04-03T20:42:31.510Z,8.96
2019-04-03T20:44:59.798Z,8.94
2019-04-03T20:47:28.214Z,8.93
2019-04-03T20:49:56.504Z,8.93
2019-04-03T20:52:24.799Z,8.92
2019-04-03T20:54:53.829Z,8.90
2019-04-03T20:57:22.284Z,8.87
2019-04-03T20:59:58.477Z,8.85
2019-04-03T21:02:20.675Z,8.82
2019-04-03T21:04:49.099Z,8.78
2019-04-03T21:07:17.371Z,8.74
2019-04-03T21:09:45.666Z,8.71
2019-04-03T21:12:14.035Z,8.72
2019-04-03T21:14:42.334Z,8.71
2019-04-03T21:17:10.625Z,8.70
2019-04-03T21:19:38.919Z,8.69
2019-04-03T21:22:07.474Z,8.67
2019-04-03T21:24:36.088Z,8.67
2019-04-03T21:27:04.379Z,8.66
2019-04-03T21:29:32.947Z,8.64
2019-04-03T21:32:01.234Z,8.64
2019-04-03T21:34:33.203Z,8.64
2019-04-03T21:37:01.786Z,8.63
2019-04-03T21:39:30.180Z,8.61
2019-04-03T21:41:58.635Z,8.61
2019-04-03T21:44:27.223Z,8.59
2019-04-03T21:46:55.799Z,8.59
2019-04-03T21:49:24.097Z,8.58
2019-04-03T21:51:52.462Z,8.56
2019-04-03T21:54:20.764Z,8.56
2019-04-03T21:56:49.079Z,8.56
2019-04-03T21:59:17.358Z,8.56
2019-04-03T22:05:14.121Z,8.53
2019-04-03T22:07:42.394Z,8.50
2019-04-03T22:10:11.111Z,8.48
2019-04-03T22:12:39.398Z,8.47
2019-04-03T22:15:08.172Z,8.49
2019-04-03T22:17:36.749Z,8.48
2019-04-03T22:20:06.223Z,8.45
2019-04-03T22:22:34.517Z,8.45
2019-04-03T22:25:02.803Z,8.46
2019-04-03T22:27:31.126Z,8.46
2019-04-03T22:29:59.419Z,8.46
2019-04-03T22:32:27.710Z,8.48
2019-04-03T22:34:55.989Z,8.49
2019-04-03T22:37:24.609Z,8.48
2019-04-03T22:39:52.891Z,8.46
2019-04-03T22:42:23.199Z,8.45
2019-04-03T22:44:51.216Z,8.42
2019-04-03T22:47:19.795Z,8.42
2019-04-03T22:49:48.110Z,8.41
2019-04-03T22:52:16.391Z,8.39
2019-04-03T22:54:45.014Z,8.38
2019-04-03T22:57:13.310Z,8.37
2019-04-03T22:59:41.617Z,8.38
2019-04-03T23:02:10.334Z,8.37
2019-04-03T23:04:41.822Z,8.38
2019-04-03T23:07:08.631Z,8.37
2019-04-03T23:09:37.220Z,8.35
2019-04-03T23:12:05.525Z,8.32
2019-04-03T23:14:33.926Z,8.32
2019-04-03T23:17:02.545Z,8.33
2019-04-03T23:19:32.482Z,8.32
2019-04-03T23:22:00.914Z,8.31
2019-04-03T23:24:29.574Z,8.30
2019-04-03T23:26:58.215Z,8.30
2019-04-03T23:29:26.530Z,8.29
2019-04-03T23:31:54.818Z,8.29
2019-04-03T23:34:23.125Z,8.29
2019-04-03T23:36:52.429Z,8.28
2019-04-03T23:39:21.731Z,8.27
2019-04-03T23:41:50.023Z,8.24
2019-04-03T23:44:18.619Z,8.22
2019-04-03T23:46:47.218Z,8.19
2019-04-03T23:49:15.890Z,8.17
2019-04-03T23:51:44.178Z,8.18
2019-04-03T23:54:12.485Z,8.12
2019-04-03T23:56:40.789Z,8.08
2019-04-03T23:59:09.091Z,7.96
